Time;durP1;ratioP1;P1;durP2;ratioP2;P2;SDS_P1;SDS_P2;PMS_P1;PMS_P2;Temp;Humidity;BMP_temperature;BMP_pressure;BME280_temperature;BME280_humidity;BME280_pressure;Samples;Min_cycle;Max_cycle;Signal;HPM_P1;HPM_P2
2023/05/25 00:00:11;;;;;;;18.80;7.60;;;;;;;16.46;62.41;101027.66;107570;1253;107786;-70
2023/05/25 00:02:59;;;;;;;18.90;6.90;;;;;;;16.42;63.39;101027.36;107534;1253;109952;-71
2023/05/25 00:05:28;;;;;;;17.60;7.70;;;;;;;16.35;62.99;101030.31;107522;1253;99250;-74
2023/05/25 00:07:56;;;;;;;14.40;7.30;;;;;;;16.31;62.63;101029.70;107589;1251;99738;-71
2023/05/25 00:10:25;;;;;;;13.80;6.70;;;;;;;16.31;62.72;101027.86;107611;1251;113761;-73
2023/05/25 00:12:55;;;;;;;13.40;7.10;;;;;;;16.31;62.79;101020.36;107609;1254;108058;-70
2023/05/25 00:15:24;;;;;;;17.40;6.40;;;;;;;16.27;62.84;101018.33;107602;1253;107565;-70
2023/05/25 00:17:53;;;;;;;14.00;6.70;;;;;;;16.21;63.66;101018.42;107589;1251;99052;-70
2023/05/25 00:20:22;;;;;;;16.90;6.70;;;;;;;16.15;63.32;101014.92;107661;1251;99057;-71
2023/05/25 00:22:51;;;;;;;15.40;6.70;;;;;;;16.15;63.19;101021.46;107657;1254;112514;-70
2023/05/25 00:25:19;;;;;;;13.20;6.60;;;;;;;16.14;63.16;101019.90;107641;1251;109280;-70
2023/05/25 00:27:48;;;;;;;22.30;7.20;;;;;;;16.14;63.30;101019.02;107580;1251;107841;-69
2023/05/25 00:30:17;;;;;;;18.10;6.40;;;;;;;16.16;63.26;101016.99;107580;1251;99179;-70
2023/05/25 00:32:46;;;;;;;17.60;6.70;;;;;;;16.20;63.09;101018.95;107605;1251;99784;-69
2023/05/25 00:35:15;;;;;;;15.20;6.50;;;;;;;16.21;63.16;101017.70;107627;1251;113446;-70
2023/05/25 00:37:43;;;;;;;18.80;6.40;;;;;;;16.26;63.19;101020.46;107586;1254;108756;-70
2023/05/25 00:40:15;;;;;;;17.80;5.50;;;;;;;16.30;63.31;101014.98;107594;1254;108794;-70
2023/05/25 00:42:44;;;;;;;14.00;5.60;;;;;;;16.32;63.10;101021.27;107558;1252;99195;-68
2023/05/25 00:45:12;;;;;;;7.90;5.50;;;;;;;16.37;63.69;101024.34;107628;1251;99053;-71
2023/05/25 00:47:43;;;;;;;14.70;6.40;;;;;;;16.39;63.50;101026.14;107600;1254;113751;-71
2023/05/25 00:50:16;;;;;;;22.00;6.70;;;;;;;16.42;63.48;101023.36;107644;1253;108603;-71
2023/05/25 00:52:44;;;;;;;24.90;6.80;;;;;;;16.49;63.55;101024.42;107572;1253;107337;-71
2023/05/25 00:55:17;;;;;;;20.10;5.70;;;;;;;16.56;63.45;101023.54;107610;1254;99180;-71
2023/05/25 00:57:50;;;;;;;14.80;5.40;;;;;;;16.62;63.28;101025.54;107631;1253;99074;-69
2023/05/25 01:00:20;;;;;;;12.70;5.10;;;;;;;16.68;63.14;101034.16;107569;1253;113613;-69
2023/05/25 01:02:51;;;;;;;14.90;5.10;;;;;;;16.70;62.71;101037.20;107581;1254;110003;-70
2023/05/25 01:05:27;;;;;;;15.10;6.20;;;;;;;16.73;62.92;101049.91;107626;1256;108920;-70
2023/05/25 01:08:00;;;;;;;15.40;6.50;;;;;;;16.73;62.96;101043.77;107587;1252;99198;-74
2023/05/25 01:10:32;;;;;;;13.60;5.50;;;;;;;16.72;63.08;101040.75;107564;1253;99183;-74
2023/05/25 01:13:03;;;;;;;11.60;5.40;;;;;;;16.72;62.90;101037.02;107614;1255;113621;-75
2023/05/25 01:15:32;;;;;;;24.40;5.20;;;;;;;16.63;63.06;101036.88;107634;1251;110173;-70
2023/05/25 01:18:00;;;;;;;11.40;5.10;;;;;;;16.47;63.00;101039.19;107550;1254;107149;-70
2023/05/25 01:20:29;;;;;;;17.00;5.40;;;;;;;16.31;63.04;101036.00;107597;1255;99258;-70
2023/05/25 01:23:04;;;;;;;14.30;5.20;;;;;;;16.20;63.52;101040.52;107588;1254;99062;-71
2023/05/25 01:25:38;;;;;;;13.50;5.20;;;;;;;16.11;63.25;101045.71;107624;1251;113127;-69
2023/05/25 01:28:24;;;;;;;14.20;5.30;;;;;;;16.13;62.93;101043.38;107685;1251;109994;-69
2023/05/25 01:30:55;;;;;;;13.00;5.40;;;;;;;16.20;62.93;101050.54;107541;1251;108111;-69
2023/05/25 01:33:25;;;;;;;13.50;6.10;;;;;;;16.27;62.87;101048.92;107591;1254;99029;-68
2023/05/25 01:35:53;;;;;;;14.70;6.60;;;;;;;16.23;63.86;101052.38;107675;1252;99184;-68
2023/05/25 01:38:21;;;;;;;14.50;6.60;;;;;;;16.13;63.84;101051.31;107588;1253;113362;-69
2023/05/25 01:40:50;;;;;;;20.60;6.60;;;;;;;16.13;64.04;101045.62;107596;1254;109425;-68
2023/05/25 01:43:19;;;;;;;18.10;7.10;;;;;;;16.15;64.47;101045.01;107591;1253;107472;-70
2023/05/25 01:45:48;;;;;;;23.00;5.70;;;;;;;16.15;64.42;101042.66;107622;1255;99057;-70
2023/05/25 01:48:39;;;;;;;10.80;5.10;;;;;;;16.15;64.36;101044.46;107622;1253;99047;-71
2023/05/25 01:51:20;;;;;;;8.10;4.90;;;;;;;16.19;63.89;101045.45;107576;1253;112596;-73
2023/05/25 01:53:57;;;;;;;12.60;5.20;;;;;;;16.25;63.76;101047.13;107619;1252;108646;-71
2023/05/25 01:56:27;;;;;;;12.20;5.60;;;;;;;16.31;63.58;101044.50;107578;1255;108222;-71
2023/05/25 01:59:00;;;;;;;14.80;5.60;;;;;;;16.37;63.40;101047.62;107492;1254;99061;-72
2023/05/25 02:01:30;;;;;;;22.20;5.90;;;;;;;16.35;63.10;101045.73;107636;1251;99833;-72
2023/05/25 02:03:59;;;;;;;17.20;5.70;;;;;;;16.33;63.05;101041.80;107584;1254;111744;-70
2023/05/25 02:06:28;;;;;;;12.60;5.20;;;;;;;16.29;63.02;101044.05;107634;1251;110109;-72
2023/05/25 02:09:00;;;;;;;20.10;5.30;;;;;;;16.26;63.13;101046.86;107400;1258;106801;-69
2023/05/25 02:11:28;;;;;;;9.70;4.90;;;;;;;16.27;63.35;101052.73;107618;1253;99165;-69
2023/05/25 02:13:57;;;;;;;13.80;4.90;;;;;;;16.27;63.08;101064.27;107562;1254;99172;-70
2023/05/25 02:16:26;;;;;;;11.60;4.80;;;;;;;16.31;63.19;101065.59;107569;1254;113166;-69
2023/05/25 02:18:56;;;;;;;21.20;5.30;;;;;;;16.31;63.34;101070.08;107596;1254;109945;-69
2023/05/25 02:21:25;;;;;;;12.50;4.70;;;;;;;16.27;63.36;101071.57;107537;1253;108036;-70
2023/05/25 02:23:53;;;;;;;18.40;5.50;;;;;;;16.16;63.70;101077.95;107531;1254;99176;-68
2023/05/25 02:26:22;;;;;;;13.40;5.10;;;;;;;16.03;64.39;101080.05;107638;1251;99826;-68
2023/05/25 02:28:51;;;;;;;11.20;5.20;;;;;;;15.91;64.51;101082.83;107562;1256;111166;-70
2023/05/25 02:31:20;;;;;;;18.90;5.30;;;;;;;15.81;64.91;101085.79;107657;1251;109043;-69
2023/05/25 02:33:48;;;;;;;23.00;4.60;;;;;;;15.76;65.07;101088.33;107536;1252;106567;-71
2023/05/25 02:36:19;;;;;;;11.20;5.10;;;;;;;15.72;65.14;101088.79;107571;1251;99181;-71
2023/05/25 02:38:51;;;;;;;15.00;5.00;;;;;;;15.71;65.14;101092.91;107566;1256;99337;-74
2023/05/25 02:41:20;;;;;;;19.30;4.70;;;;;;;15.71;65.04;101091.93;107584;1250;112858;-74
2023/05/25 02:43:49;;;;;;;12.90;4.70;;;;;;;15.74;65.05;101090.71;107591;1251;109020;-69
2023/05/25 02:46:19;;;;;;;11.80;4.50;;;;;;;15.82;64.77;101091.76;107559;1251;106907;-70
2023/05/25 02:48:49;;;;;;;12.90;5.40;;;;;;;15.91;64.81;101093.64;107537;1254;99163;-74
2023/05/25 02:51:17;;;;;;;11.10;4.50;;;;;;;15.96;64.69;101086.10;107553;1253;99198;-70
2023/05/25 02:53:47;;;;;;;12.20;4.80;;;;;;;15.99;64.65;101092.14;107678;1255;112048;-69
2023/05/25 02:56:15;;;;;;;19.70;5.80;;;;;;;16.02;64.41;101091.38;107607;1251;109494;-70
2023/05/25 02:58:43;;;;;;;14.50;4.40;;;;;;;16.07;64.42;101093.77;107592;1254;108629;-71
2023/05/25 03:01:19;;;;;;;11.30;4.30;;;;;;;16.12;64.11;101095.10;107537;1254;99173;-66
2023/05/25 03:03:51;;;;;;;19.10;4.80;;;;;;;16.16;63.91;101094.71;107615;1251;99228;-70
2023/05/25 03:06:21;;;;;;;15.50;5.10;;;;;;;16.23;63.96;101096.58;107658;1251;113702;-69
2023/05/25 03:08:54;;;;;;;17.00;4.80;;;;;;;16.31;64.06;101101.02;107637;1251;109856;-68
2023/05/25 03:11:22;;;;;;;18.90;6.50;;;;;;;16.34;63.62;101104.11;107638;1251;107475;-69
2023/05/25 03:13:51;;;;;;;21.70;5.90;;;;;;;16.36;63.67;101108.98;107584;1256;99266;-69
2023/05/25 03:16:22;;;;;;;11.90;5.30;;;;;;;16.34;63.84;101107.63;107635;1251;99190;-72
2023/05/25 03:18:50;;;;;;;13.90;4.80;;;;;;;16.30;63.87;101113.79;107669;1251;112317;-67
2023/05/25 03:21:21;;;;;;;14.20;5.10;;;;;;;16.28;63.66;101114.32;107589;1251;108327;-70
2023/05/25 03:23:50;;;;;;;11.90;5.50;;;;;;;16.30;63.46;101117.55;107614;1256;107554;-71
2023/05/25 03:26:19;;;;;;;21.00;5.70;;;;;;;16.38;63.73;101122.36;107630;1251;99163;-70
2023/05/25 03:28:49;;;;;;;14.10;5.40;;;;;;;16.41;63.58;101128.67;107567;1254;99816;-69
2023/05/25 03:31:21;;;;;;;12.80;5.20;;;;;;;16.44;63.35;101129.81;107552;1251;112953;-73
2023/05/25 03:33:54;;;;;;;10.90;4.10;;;;;;;16.47;63.25;101137.17;107555;1250;108932;-73
2023/05/25 03:36:26;;;;;;;17.30;5.10;;;;;;;16.50;63.19;101149.23;107604;1251;108036;-70
2023/05/25 03:38:55;;;;;;;14.80;5.70;;;;;;;16.55;63.22;101157.09;107573;1256;99175;-72
2023/05/25 03:41:24;;;;;;;12.70;5.90;;;;;;;16.55;63.10;101152.70;107660;1251;99275;-72
2023/05/25 03:43:52;;;;;;;17.70;5.30;;;;;;;16.58;63.16;101155.66;107583;1251;113214;-69
2023/05/25 03:46:21;;;;;;;19.50;4.90;;;;;;;16.63;63.03;101155.21;107536;1251;108810;-73
2023/05/25 03:48:50;;;;;;;19.90;5.70;;;;;;;16.65;63.04;101146.92;107580;1251;108026;-72
2023/05/25 03:51:19;;;;;;;13.50;5.20;;;;;;;16.66;63.05;101139.56;107630;1255;99153;-70
2023/05/25 03:53:50;;;;;;;10.60;4.50;;;;;;;16.65;63.10;101147.36;107600;1251;99886;-74
2023/05/25 03:56:18;;;;;;;25.80;5.80;;;;;;;16.64;63.24;101157.60;107585;1251;113533;-71
2023/05/25 03:58:46;;;;;;;16.90;5.20;;;;;;;16.64;63.20;101153.58;107497;1251;109953;-69
2023/05/25 04:01:15;;;;;;;17.50;6.20;;;;;;;16.61;63.01;101163.90;107572;1254;108066;-68
2023/05/25 04:03:44;;;;;;;14.40;5.50;;;;;;;16.64;63.01;101169.02;107578;1251;99276;-69
2023/05/25 04:06:12;;;;;;;15.20;5.90;;;;;;;16.66;63.14;101170.52;107607;1256;100195;-69
2023/05/25 04:08:41;;;;;;;12.40;5.20;;;;;;;16.64;63.42;101162.50;107656;1250;112632;-68
2023/05/25 04:11:10;;;;;;;14.40;5.00;;;;;;;16.58;63.37;101159.27;107449;1254;110181;-71
2023/05/25 04:13:39;;;;;;;20.80;5.90;;;;;;;16.52;63.63;101164.98;107506;1256;108118;-69
2023/05/25 04:16:11;;;;;;;14.70;5.10;;;;;;;16.50;63.49;101164.50;107576;1254;99026;-69
2023/05/25 04:18:40;;;;;;;13.50;5.10;;;;;;;16.50;63.71;101166.67;107561;1257;99669;-70
2023/05/25 04:21:09;;;;;;;14.90;4.70;;;;;;;16.46;63.86;101165.95;107583;1251;112445;-71
2023/05/25 04:23:37;;;;;;;13.70;5.00;;;;;;;16.41;64.24;101169.98;107584;1254;110100;-68
2023/05/25 04:26:09;;;;;;;9.70;4.60;;;;;;;16.35;64.60;101167.73;107625;1251;108571;-70
2023/05/25 04:28:40;;;;;;;19.20;5.20;;;;;;;16.29;64.49;101162.16;107596;1256;99250;-70
2023/05/25 04:31:29;;;;;;;17.10;4.70;;;;;;;16.31;64.70;101169.23;107621;1254;99179;-70
2023/05/25 04:34:22;;;;;;;16.30;5.30;;;;;;;16.33;64.86;101167.34;107299;1256;113165;-74
2023/05/25 04:37:04;;;;;;;22.90;10.00;;;;;;;16.37;65.05;101168.77;107615;1253;108996;-72
2023/05/25 04:39:33;;;;;;;12.90;4.60;;;;;;;16.43;65.02;101167.23;107544;1254;108369;-71
2023/05/25 04:42:03;;;;;;;9.30;4.60;;;;;;;16.47;65.08;101174.21;107526;1255;99740;-69
2023/05/25 04:44:35;;;;;;;12.90;5.00;;;;;;;16.52;64.81;101171.34;107576;1254;99794;-69
2023/05/25 04:47:06;;;;;;;21.70;5.20;;;;;;;16.59;65.00;101175.27;107625;1254;112350;-70
2023/05/25 04:49:37;;;;;;;15.80;5.10;;;;;;;16.69;64.62;101183.41;107583;1254;110105;-69
2023/05/25 04:52:08;;;;;;;21.00;5.70;;;;;;;16.79;64.44;101176.24;107553;1254;107111;-68
2023/05/25 04:54:38;;;;;;;18.90;5.20;;;;;;;16.85;64.31;101176.09;107532;1254;99264;-67
2023/05/25 04:57:08;;;;;;;19.50;5.70;;;;;;;16.87;64.21;101174.47;107518;1254;99057;-70
2023/05/25 04:59:36;;;;;;;15.90;4.90;;;;;;;16.94;64.12;101176.94;107590;1254;113085;-68
2023/05/25 05:02:05;;;;;;;11.10;3.90;;;;;;;17.03;63.87;101181.27;107555;1251;108777;-69
2023/05/25 05:04:33;;;;;;;9.60;4.80;;;;;;;17.08;63.66;101181.61;107615;1251;107934;-69
2023/05/25 05:07:02;;;;;;;12.70;5.20;;;;;;;17.13;63.38;101182.56;107656;1251;99275;-72
2023/05/25 05:09:31;;;;;;;16.30;5.30;;;;;;;17.16;63.25;101182.16;107652;1256;99185;-75
2023/05/25 05:12:02;;;;;;;14.00;4.80;;;;;;;17.15;62.93;101184.41;107617;1251;113165;-76
2023/05/25 05:14:35;;;;;;;20.40;5.40;;;;;;;17.14;62.90;101189.13;107594;1250;108933;-75
2023/05/25 05:17:04;;;;;;;11.00;5.30;;;;;;;17.13;62.84;101188.64;107572;1256;107621;-69
2023/05/25 05:19:33;;;;;;;13.90;4.90;;;;;;;17.13;62.74;101189.36;107531;1257;99187;-70
2023/05/25 05:22:02;;;;;;;12.40;4.90;;;;;;;17.14;62.88;101194.73;107460;1254;99197;-70
2023/05/25 05:24:31;;;;;;;7.70;4.70;;;;;;;17.13;63.25;101195.41;107592;1254;113579;-71
2023/05/25 05:27:00;;;;;;;14.10;4.90;;;;;;;17.11;63.28;101197.41;107684;1254;109750;-71
2023/05/25 05:29:43;;;;;;;13.60;5.10;;;;;;;17.15;63.13;101193.95;107500;1256;107826;-71
2023/05/25 05:32:13;;;;;;;14.40;5.40;;;;;;;17.18;63.07;101193.51;107641;1256;99824;-70
2023/05/25 05:34:41;;;;;;;11.80;5.90;;;;;;;17.22;63.22;101194.39;107587;1256;99081;-71
2023/05/25 05:37:21;;;;;;;21.90;5.70;;;;;;;17.24;63.04;101197.80;107582;1257;113715;-70
2023/05/25 05:39:52;;;;;;;11.30;4.90;;;;;;;17.29;63.14;101201.02;107577;1255;109762;-70
2023/05/25 05:42:21;;;;;;;15.20;5.60;;;;;;;17.35;63.15;101197.08;107504;1257;108191;-69
2023/05/25 05:44:49;;;;;;;15.30;5.30;;;;;;;17.38;62.96;101193.16;107509;1257;99250;-69
2023/05/25 05:47:17;;;;;;;22.70;4.70;;;;;;;17.45;62.97;101194.29;107445;1254;99160;-70
2023/05/25 05:49:46;;;;;;;15.30;5.40;;;;;;;17.50;62.75;101198.18;107550;1256;113173;-70
2023/05/25 05:52:14;;;;;;;11.20;5.30;;;;;;;17.55;62.52;101198.04;107562;1256;108931;-67
2023/05/25 05:54:43;;;;;;;18.20;5.20;;;;;;;17.61;62.23;101202.51;107422;1257;108665;-64
2023/05/25 05:57:13;;;;;;;12.00;4.60;;;;;;;17.68;62.31;101208.23;107422;1254;99169;-69
2023/05/25 05:59:42;;;;;;;9.10;4.40;;;;;;;17.78;61.96;101205.28;107489;1254;99726;-72
2023/05/25 06:02:10;;;;;;;12.80;5.20;;;;;;;17.89;61.86;101206.89;107609;1251;113074;-71
2023/05/25 06:04:39;;;;;;;9.30;5.40;;;;;;;17.97;61.57;101208.22;107637;1251;108588;-71
2023/05/25 06:07:08;;;;;;;13.30;5.30;;;;;;;18.02;60.84;101206.05;107576;1252;108275;-70
2023/05/25 06:09:36;;;;;;;16.50;5.50;;;;;;;18.04;60.95;101202.91;107594;1256;99166;-72
2023/05/25 06:12:05;;;;;;;17.70;6.40;;;;;;;18.10;61.02;101205.88;107643;1256;99226;-71
2023/05/25 06:14:34;;;;;;;15.00;5.70;;;;;;;18.17;61.16;101210.48;107657;1254;113589;-73
2023/05/25 06:17:06;;;;;;;13.40;6.20;;;;;;;18.24;61.08;101203.96;107603;1250;109319;-72
2023/05/25 06:19:37;;;;;;;10.80;5.40;;;;;;;18.34;61.81;101209.80;107602;1251;107212;-68
2023/05/25 06:22:06;;;;;;;15.00;5.10;;;;;;;18.45;61.80;101213.12;107603;1254;99172;-69
2023/05/25 06:24:35;;;;;;;12.20;5.30;;;;;;;18.53;61.66;101208.73;107536;1251;99265;-68
2023/05/25 06:27:03;;;;;;;14.00;5.10;;;;;;;18.60;61.39;101210.84;107643;1257;112200;-70
2023/05/25 06:29:33;;;;;;;16.10;5.80;;;;;;;18.68;61.44;101210.11;107521;1256;108838;-71
2023/05/25 06:32:01;;;;;;;10.10;5.50;;;;;;;18.72;61.18;101207.42;107537;1256;107449;-72
2023/05/25 06:34:32;;;;;;;18.20;5.10;;;;;;;18.79;60.99;101207.56;107603;1256;99192;-70
2023/05/25 06:37:04;;;;;;;19.10;5.20;;;;;;;18.88;60.87;101209.75;107576;1251;99204;-69
2023/05/25 06:39:33;;;;;;;16.10;6.50;;;;;;;18.97;61.04;101216.06;107596;1252;112286;-71
2023/05/25 06:42:02;;;;;;;12.70;6.10;;;;;;;19.02;60.74;101211.80;107528;1251;109257;-75
2023/05/25 06:44:33;;;;;;;13.50;5.40;;;;;;;19.09;60.69;101211.17;107572;1260;108055;-74
2023/05/25 06:47:03;;;;;;;22.10;6.20;;;;;;;19.18;60.78;101210.56;107526;1256;99061;-73
2023/05/25 06:49:32;;;;;;;14.70;6.40;;;;;;;19.27;60.83;101209.66;107618;1256;99070;-76
2023/05/25 06:52:00;;;;;;;16.90;6.60;;;;;;;19.40;60.56;101213.04;107534;1256;112383;-70
2023/05/25 06:54:29;;;;;;;19.40;5.10;;;;;;;19.51;60.21;101218.39;107574;1251;109804;-75
2023/05/25 06:56:58;;;;;;;22.00;7.90;;;;;;;19.60;60.12;101218.58;107582;1251;108204;-72
2023/05/25 06:59:26;;;;;;;13.10;5.50;;;;;;;19.74;60.07;101221.41;107510;1257;99054;-76
2023/05/25 07:01:59;;;;;;;20.80;5.80;;;;;;;19.92;59.94;101222.77;107626;1251;99048;-69
2023/05/25 07:04:27;;;;;;;17.30;5.30;;;;;;;20.11;59.62;101223.43;107564;1254;113535;-71
2023/05/25 07:06:55;;;;;;;14.90;5.20;;;;;;;20.32;59.39;101222.48;107577;1253;110151;-72
2023/05/25 07:09:24;;;;;;;22.00;5.70;;;;;;;20.55;59.03;101226.52;107586;1254;107597;-72
2023/05/25 07:11:52;;;;;;;21.40;5.00;;;;;;;20.80;57.66;101219.63;107590;1255;99067;-73
2023/05/25 07:14:20;;;;;;;12.90;4.60;;;;;;;21.00;57.30;101222.86;107612;1251;99153;-74
2023/05/25 07:16:48;;;;;;;13.50;5.00;;;;;;;21.20;56.33;101216.35;107582;1254;113053;-76
2023/05/25 07:19:20;;;;;;;19.70;5.50;;;;;;;21.42;56.12;101217.13;107580;1254;109186;-72
2023/05/25 07:21:48;;;;;;;10.00;4.40;;;;;;;21.70;54.51;101217.32;107514;1256;107776;-73
2023/05/25 07:24:17;;;;;;;13.40;4.30;;;;;;;21.93;53.04;101219.52;107588;1254;99172;-71
2023/05/25 07:26:47;;;;;;;17.10;4.40;;;;;;;22.13;52.73;101219.89;107683;1254;99233;-73
2023/05/25 07:29:16;;;;;;;17.00;4.60;;;;;;;22.31;51.93;101219.21;107654;1254;112387;-72
2023/05/25 07:31:45;;;;;;;14.30;4.50;;;;;;;22.47;51.11;101223.20;107599;1251;110073;-69
2023/05/25 07:34:14;;;;;;;12.10;4.00;;;;;;;22.58;50.53;101224.09;107644;1254;108693;-70
2023/05/25 07:36:42;;;;;;;10.00;3.50;;;;;;;22.67;50.54;101227.88;107636;1251;99140;-74
2023/05/25 07:39:11;;;;;;;14.80;4.20;;;;;;;22.78;49.91;101229.27;107676;1251;99069;-72
2023/05/25 07:41:39;;;;;;;13.50;4.30;;;;;;;22.89;49.45;101229.46;107625;1254;113197;-72
2023/05/25 07:44:07;;;;;;;11.10;4.30;;;;;;;22.99;49.92;101229.45;107573;1251;107947;-72
2023/05/25 07:46:36;;;;;;;13.40;3.70;;;;;;;23.14;50.53;101229.17;107625;1251;107069;-71
2023/05/25 07:49:09;;;;;;;13.90;4.20;;;;;;;23.33;50.56;101224.16;107627;1251;99285;-74
2023/05/25 07:51:38;;;;;;;13.90;4.40;;;;;;;23.48;50.10;101222.42;107616;1251;99090;-71
2023/05/25 07:54:06;;;;;;;7.20;3.90;;;;;;;23.64;49.62;101219.17;107607;1251;113305;-74
2023/05/25 07:56:34;;;;;;;16.20;4.00;;;;;;;23.79;48.96;101225.92;107536;1254;109943;-75
2023/05/25 07:59:03;;;;;;;12.30;4.00;;;;;;;23.96;48.22;101219.31;107604;1253;108686;-75
2023/05/25 08:01:32;;;;;;;19.20;4.10;;;;;;;24.15;47.25;101220.21;106773;1254;957724;-74
2023/05/25 08:04:00;;;;;;;7.90;3.60;;;;;;;24.32;47.22;101218.42;107598;1254;99719;-72
2023/05/25 08:06:29;;;;;;;14.90;4.10;;;;;;;24.43;47.30;101219.98;107727;1251;113329;-74
2023/05/25 08:08:57;;;;;;;10.10;3.50;;;;;;;24.53;46.99;101217.79;107617;1251;109097;-71
2023/05/25 08:11:26;;;;;;;18.10;4.10;;;;;;;24.58;46.52;101221.54;107579;1251;107555;-76
2023/05/25 08:13:54;;;;;;;11.80;3.80;;;;;;;24.56;46.25;101217.94;107477;1251;99106;-75
2023/05/25 08:16:23;;;;;;;16.50;4.50;;;;;;;24.58;46.45;101223.31;107591;1251;99089;-76
2023/05/25 08:18:51;;;;;;;18.90;4.50;;;;;;;24.66;46.41;101220.86;107625;1251;113274;-74
2023/05/25 08:21:23;;;;;;;16.70;3.90;;;;;;;24.73;46.40;101216.70;107625;1251;108669;-76
2023/05/25 08:23:52;;;;;;;11.40;4.70;;;;;;;24.76;46.28;101216.21;107582;1252;108575;-75
2023/05/25 08:26:21;;;;;;;12.90;3.80;;;;;;;24.70;46.30;101216.67;107559;1251;99185;-73
2023/05/25 08:28:54;;;;;;;15.50;4.40;;;;;;;24.63;46.63;101217.52;107646;1256;99162;-73
2023/05/25 08:31:22;;;;;;;20.00;4.10;;;;;;;24.72;46.13;101215.58;107608;1254;113168;-74
2023/05/25 08:33:50;;;;;;;15.40;3.70;;;;;;;24.76;45.81;101219.23;107590;1251;109995;-72
2023/05/25 08:36:19;;;;;;;11.70;3.30;;;;;;;24.76;45.59;101217.58;107618;1251;107807;-74
2023/05/25 08:38:47;;;;;;;12.10;3.30;;;;;;;24.71;45.64;101214.55;107604;1251;99176;-71
2023/05/25 08:41:16;;;;;;;6.40;3.00;;;;;;;24.71;44.85;101220.61;107582;1251;99131;-73
2023/05/25 08:43:44;;;;;;;6.60;2.80;;;;;;;24.72;44.01;101220.61;107572;1254;112776;-74
2023/05/25 08:46:13;;;;;;;11.90;3.00;;;;;;;24.74;44.03;101221.14;107617;1251;107870;-73
2023/05/25 08:48:44;;;;;;;8.70;2.90;;;;;;;24.82;44.38;101219.56;107533;1254;107819;-73
2023/05/25 08:51:16;;;;;;;8.70;3.10;;;;;;;24.98;44.03;101218.42;107485;1251;99153;-74
2023/05/25 08:53:45;;;;;;;17.60;3.20;;;;;;;25.09;43.24;101220.33;107528;1251;99790;-72
2023/05/25 08:56:19;;;;;;;11.20;2.80;;;;;;;25.21;43.43;101219.91;107543;1251;112999;-73
2023/05/25 08:59:11;;;;;;;14.90;3.00;;;;;;;25.27;41.85;101219.16;107494;1251;108509;-71
2023/05/25 09:01:45;;;;;;;10.40;3.10;;;;;;;25.39;42.65;101217.63;107550;1254;107827;-75
2023/05/25 09:04:13;;;;;;;8.20;2.70;;;;;;;25.61;42.44;101214.32;107522;1250;99220;-75
2023/05/25 09:06:44;;;;;;;13.00;3.20;;;;;;;25.82;42.28;101217.46;107506;1251;99079;-75
2023/05/25 09:09:35;;;;;;;12.10;2.50;;;;;;;26.01;41.89;101216.30;107478;1251;113523;-75
2023/05/25 09:12:05;;;;;;;11.20;3.20;;;;;;;26.26;41.57;101218.21;107528;1251;109145;-74
2023/05/25 09:14:34;;;;;;;12.70;2.90;;;;;;;26.60;41.40;101210.07;107497;1251;108214;-74
2023/05/25 09:17:02;;;;;;;8.90;2.90;;;;;;;27.03;40.28;101207.95;107582;1251;99057;-74
2023/05/25 09:19:31;;;;;;;16.10;3.80;;;;;;;27.49;39.45;101207.74;107533;1251;99253;-71
2023/05/25 09:22:02;;;;;;;11.70;2.90;;;;;;;27.92;38.31;101198.52;107564;1251;113668;-74
2023/05/25 09:24:44;;;;;;;14.80;3.80;;;;;;;28.39;37.07;101196.49;107575;1251;109370;-75
2023/05/25 09:27:18;;;;;;;10.80;3.00;;;;;;;28.61;35.61;101192.95;107589;1251;108767;-74
2023/05/25 09:29:48;;;;;;;12.00;3.10;;;;;;;28.69;35.58;101192.96;107490;1251;99855;-75
2023/05/25 09:32:18;;;;;;;12.60;2.90;;;;;;;28.72;35.05;101191.25;107552;1251;99733;-75
2023/05/25 09:34:47;;;;;;;9.90;3.40;;;;;;;28.78;35.59;101196.94;107595;1251;113741;-75
2023/05/25 09:37:17;;;;;;;15.90;2.90;;;;;;;29.09;35.11;101189.64;107571;1251;109777;-74
2023/05/25 09:39:47;;;;;;;7.50;2.70;;;;;;;29.41;34.58;101184.98;107552;1251;107951;-74
2023/05/25 09:42:16;;;;;;;19.90;3.20;;;;;;;29.67;34.15;101185.43;107520;1254;99360;-76
2023/05/25 09:44:45;;;;;;;13.50;3.10;;;;;;;29.99;33.57;101182.63;107652;1253;99178;-74
2023/05/25 09:47:15;;;;;;;13.20;2.30;;;;;;;30.28;33.40;101177.83;107478;1253;113344;-74
2023/05/25 09:49:46;;;;;;;10.90;2.90;;;;;;;30.49;33.00;101172.38;107684;1254;109355;-77
2023/05/25 09:52:15;;;;;;;10.30;2.90;;;;;;;30.76;33.07;101167.67;107614;1251;109070;-72
2023/05/25 09:54:46;;;;;;;10.10;2.50;;;;;;;31.07;32.60;101166.64;107626;1251;99184;-71
2023/05/25 09:57:15;;;;;;;9.60;2.30;;;;;;;31.35;31.91;101167.98;107672;1251;99191;-70
2023/05/25 09:59:44;;;;;;;10.90;2.60;;;;;;;31.50;31.31;101166.02;107518;1251;112819;-70
2023/05/25 10:02:14;;;;;;;9.60;2.50;;;;;;;31.55;31.19;101158.05;107568;1251;108534;-70
2023/05/25 10:04:42;;;;;;;12.80;2.40;;;;;;;31.73;30.74;101156.84;107609;1251;107038;-69
2023/05/25 10:07:14;;;;;;;9.20;2.40;;;;;;;31.91;30.49;101150.21;107561;1251;99155;-70
2023/05/25 10:09:45;;;;;;;12.30;2.80;;;;;;;32.22;30.24;101148.90;107549;1254;99306;-71
2023/05/25 10:12:18;;;;;;;12.70;3.00;;;;;;;32.74;30.16;101146.36;107592;1251;112801;-70
2023/05/25 10:14:49;;;;;;;10.00;2.60;;;;;;;33.39;29.68;101138.73;107579;1251;110607;-72
2023/05/25 10:17:22;;;;;;;14.50;2.40;;;;;;;34.01;28.28;101140.20;107596;1251;107798;-69
2023/05/25 10:19:58;;;;;;;9.70;2.10;;;;;;;34.39;27.36;101137.79;107503;1251;99265;-73
2023/05/25 10:22:47;;;;;;;18.20;2.80;;;;;;;34.63;27.03;101138.19;107439;1259;100864;-70
2023/05/25 10:25:18;;;;;;;10.90;2.90;;;;;;;34.69;26.73;101131.17;107665;1251;113311;-71
2023/05/25 10:28:01;;;;;;;13.50;2.60;;;;;;;34.79;26.53;101128.80;107451;1251;110014;-69
2023/05/25 10:30:31;;;;;;;11.40;2.40;;;;;;;34.71;26.20;101127.80;107538;1251;108295;-68
2023/05/25 10:33:02;;;;;;;6.50;2.10;;;;;;;34.61;26.43;101124.86;107518;1250;99041;-71
2023/05/25 10:35:31;;;;;;;9.70;2.90;;;;;;;34.95;26.23;101119.52;107657;1251;99047;-71
2023/05/25 10:38:19;;;;;;;5.50;2.20;;;;;;;35.33;25.39;101112.34;107690;1251;114460;-70
2023/05/25 10:40:50;;;;;;;5.10;2.20;;;;;;;35.40;25.29;101113.98;107350;1251;109671;-69
2023/05/25 10:43:20;;;;;;;15.60;2.30;;;;;;;35.66;24.84;101107.41;107642;1252;108195;-69
2023/05/25 10:45:48;;;;;;;6.80;2.00;;;;;;;35.76;23.75;101105.23;107554;1254;99290;-69
2023/05/25 10:48:17;;;;;;;7.50;1.90;;;;;;;35.66;24.10;101098.74;107648;1254;99149;-69
2023/05/25 10:50:54;;;;;;;12.70;2.60;;;;;;;35.72;24.73;101097.17;107611;1254;112079;-73
2023/05/25 10:53:25;;;;;;;7.30;2.30;;;;;;;36.02;24.43;101093.16;107679;1254;109902;-69
2023/05/25 10:55:54;;;;;;;8.10;2.10;;;;;;;36.35;23.95;101089.98;107611;1251;107799;-69
2023/05/25 10:58:22;;;;;;;11.00;2.10;;;;;;;36.42;23.28;101082.67;107617;1256;99173;-69
2023/05/25 11:01:08;;;;;;;7.30;1.90;;;;;;;36.16;22.97;101079.80;107606;1257;99675;-69
2023/05/25 11:03:42;;;;;;;10.90;2.30;;;;;;;36.15;23.77;101072.70;107551;1251;112317;-69
2023/05/25 11:06:16;;;;;;;5.40;1.70;;;;;;;36.38;24.20;101066.30;107576;1250;110406;-68
2023/05/25 11:08:55;;;;;;;5.80;2.20;;;;;;;37.04;23.87;101055.12;107497;1251;106891;-70
2023/05/25 11:11:42;;;;;;;11.20;2.30;;;;;;;37.00;22.91;101048.06;107493;1251;99130;-69
2023/05/25 11:14:29;;;;;;;5.90;2.00;;;;;;;36.69;22.92;101047.98;107593;1251;99755;-70
2023/05/25 11:17:12;;;;;;;11.40;2.20;;;;;;;36.51;23.01;101046.02;107506;1254;113808;-71
2023/05/25 11:19:49;;;;;;;4.70;2.30;;;;;;;36.22;23.08;101051.76;107528;1251;108921;-69